KKI weather

Akiachak Seaplane Base
Akiachak, Alaska, United States

Public forecast

Using degrees Fahrenheit for public forecast. Weather courtesy of forecast.io.

METAR (pilot weather report)

Closest report is Kwethluk Airport, 7.1 nm (13.1 km) S. Retrieved 2019/05/21 00:56 UTC (60 minutes ago):

PFKW 210056Z AUTO 13006KT 10SM FEW060 OVC085 14/04 A2969 RMK AO2 SLP054 T01440039

TAF (pilot weather forecast)

Forecast is more than 12 hours old.

Closest forecast is Bethel Airport, 14.1 nm (26.1 km) WSW. Retrieved 2019/05/20 00:30 UTC (1 day ago):

TAF PABE 202328Z 2100/2124 22006KT P6SM VCTS SCT025CB BKN070 FM210700 20006KT P6SM -SHRA BKN060